createdAt,value
2016-10-16T00:00:13.970Z,0
2016-10-16T00:01:13.649Z,0
2016-10-16T00:02:13.643Z,0
2016-10-16T00:03:13.643Z,0
2016-10-16T00:04:13.623Z,0
2016-10-16T00:05:13.610Z,0
2016-10-16T00:06:13.602Z,0
2016-10-16T00:07:13.590Z,0
2016-10-16T00:08:13.590Z,0
2016-10-16T00:09:13.579Z,0
2016-10-16T00:10:13.566Z,0
2016-10-16T00:11:13.557Z,0
2016-10-16T00:12:13.545Z,0
2016-10-16T00:13:13.547Z,0
2016-10-16T00:14:13.552Z,0
2016-10-16T00:15:13.532Z,0
2016-10-16T00:16:13.511Z,0
2016-10-16T00:17:13.508Z,0
2016-10-16T00:18:13.501Z,0
2016-10-16T00:19:13.495Z,0
2016-10-16T00:20:13.477Z,0
2016-10-16T00:21:13.483Z,0
2016-10-16T00:22:13.473Z,0
2016-10-16T00:23:13.457Z,0
2016-10-16T00:24:13.446Z,0
2016-10-16T00:25:13.455Z,0
2016-10-16T00:26:13.428Z,0
2016-10-16T00:27:13.424Z,0
2016-10-16T00:28:13.424Z,0
2016-10-16T00:29:13.404Z,0
2016-10-16T00:30:13.399Z,0
2016-10-16T00:31:13.386Z,0
2016-10-16T00:32:13.383Z,0
2016-10-16T00:33:13.377Z,0
2016-10-16T00:34:13.361Z,0
2016-10-16T00:35:13.356Z,0
2016-10-16T00:36:13.357Z,0
2016-10-16T00:37:13.334Z,0
2016-10-16T00:38:13.327Z,0
2016-10-16T00:39:13.323Z,0
2016-10-16T00:40:13.312Z,0
2016-10-16T00:41:13.302Z,0
2016-10-16T00:42:13.303Z,0
2016-10-16T00:43:13.285Z,0
2016-10-16T00:44:13.279Z,0
2016-10-16T00:45:13.275Z,0
2016-10-16T00:46:13.258Z,0
2016-10-16T00:47:13.256Z,0
2016-10-16T00:48:13.244Z,0
2016-10-16T00:49:13.241Z,0
2016-10-16T00:50:13.552Z,0
2016-10-16T00:51:13.222Z,0
2016-10-16T00:52:13.214Z,0
2016-10-16T00:53:13.205Z,0
2016-10-16T00:54:13.192Z,0
2016-10-16T00:55:13.183Z,0
2016-10-16T00:56:13.170Z,0
2016-10-16T00:57:13.167Z,0
2016-10-16T00:58:13.155Z,0
2016-10-16T00:59:13.152Z,0
2016-10-16T01:00:13.153Z,0
2016-10-16T01:01:13.146Z,0
2016-10-16T01:02:13.130Z,0
2016-10-16T01:03:13.113Z,0
2016-10-16T01:04:13.108Z,0
2016-10-16T01:05:14.132Z,0
2016-10-16T01:06:13.105Z,0
2016-10-16T01:07:13.104Z,0
2016-10-16T01:08:13.123Z,0
2016-10-16T01:09:13.115Z,0
2016-10-16T01:10:13.084Z,0
2016-10-16T01:11:13.138Z,0
2016-10-16T01:12:13.135Z,0
2016-10-16T01:13:13.046Z,0
2016-10-16T01:14:13.049Z,0
2016-10-16T01:15:13.060Z,0
2016-10-16T01:16:13.068Z,0
2016-10-16T01:17:13.073Z,0
2016-10-16T01:18:13.082Z,0
2016-10-16T01:19:13.090Z,0
2016-10-16T01:20:13.096Z,0
2016-10-16T01:21:13.048Z,0
2016-10-16T01:22:13.049Z,0
2016-10-16T01:23:13.058Z,0
2016-10-16T01:24:13.289Z,0
2016-10-16T01:25:13.034Z,0
2016-10-16T01:26:13.145Z,0
2016-10-16T01:27:12.988Z,0
2016-10-16T01:28:12.992Z,0
2016-10-16T01:29:13.001Z,0
2016-10-16T01:30:13.012Z,0
2016-10-16T01:31:13.007Z,0
2016-10-16T01:32:13.026Z,0
2016-10-16T01:33:13.031Z,0
2016-10-16T01:34:13.036Z,0
2016-10-16T01:35:13.048Z,0
2016-10-16T01:36:13.049Z,0
2016-10-16T01:37:13.057Z,0
2016-10-16T01:38:12.920Z,0
2016-10-16T01:39:12.971Z,0
2016-10-16T01:40:12.971Z,0
2016-10-16T01:41:12.986Z,0
2016-10-16T01:42:12.989Z,0
2016-10-16T01:43:13.000Z,0
2016-10-16T01:44:12.864Z,0
2016-10-16T01:45:13.004Z,0
2016-10-16T01:46:12.876Z,0
2016-10-16T01:47:12.882Z,0
2016-10-16T01:48:12.891Z,0
2016-10-16T01:49:12.898Z,0
2016-10-16T01:50:13.099Z,0
2016-10-16T01:51:12.949Z,0
2016-10-16T01:52:12.819Z,0
2016-10-16T01:53:12.824Z,0
2016-10-16T01:54:12.825Z,0
2016-10-16T01:55:12.833Z,0
2016-10-16T01:56:12.842Z,0
2016-10-16T01:57:12.850Z,0
2016-10-16T01:58:12.859Z,0
2016-10-16T01:59:12.974Z,0
2016-10-16T02:00:12.870Z,0
2016-10-16T02:01:12.711Z,0
2016-10-16T02:02:12.730Z,0
2016-10-16T02:03:12.824Z,0
2016-10-16T02:04:12.684Z,0
2016-10-16T02:05:12.802Z,0
2016-10-16T02:06:12.812Z,0
2016-10-16T02:07:12.966Z,0
2016-10-16T02:08:12.670Z,0
2016-10-16T02:09:12.830Z,0
2016-10-16T02:10:12.638Z,0
2016-10-16T02:11:12.752Z,0
2016-10-16T02:12:12.643Z,0
2016-10-16T02:13:12.645Z,0
2016-10-16T02:14:12.642Z,0
2016-10-16T02:15:12.628Z,0
2016-10-16T02:16:12.617Z,0
2016-10-16T02:17:12.629Z,0
2016-10-16T02:18:12.599Z,0
2016-10-16T02:19:12.585Z,0
2016-10-16T02:20:12.594Z,0
2016-10-16T02:21:12.470Z,0
2016-10-16T02:22:12.468Z,0
2016-10-16T02:23:12.466Z,0
2016-10-16T02:24:12.458Z,0
2016-10-16T02:25:12.443Z,0
2016-10-16T02:26:12.435Z,0
2016-10-16T02:27:12.433Z,0
2016-10-16T02:28:12.421Z,0
2016-10-16T02:29:12.415Z,0
2016-10-16T02:30:12.402Z,0
2016-10-16T02:31:12.428Z,0
2016-10-16T02:32:12.377Z,0
2016-10-16T02:33:12.402Z,0
2016-10-16T02:34:12.364Z,0
2016-10-16T02:35:12.350Z,0
2016-10-16T02:36:12.400Z,0
2016-10-16T02:37:12.346Z,0
2016-10-16T02:38:12.332Z,0
2016-10-16T02:39:12.326Z,0
2016-10-16T02:40:12.316Z,0
2016-10-16T02:41:12.323Z,0
2016-10-16T02:42:12.308Z,0
2016-10-16T02:43:12.296Z,0
2016-10-16T02:44:12.285Z,0
2016-10-16T02:45:12.275Z,0
2016-10-16T02:46:12.268Z,0
2016-10-16T02:47:12.256Z,0
2016-10-16T02:48:12.255Z,0
2016-10-16T02:49:12.251Z,0
2016-10-16T02:50:12.236Z,0
2016-10-16T02:51:12.222Z,0
2016-10-16T02:52:12.225Z,0
2016-10-16T02:53:12.252Z,0
2016-10-16T02:54:12.200Z,0
2016-10-16T02:55:12.198Z,0
2016-10-16T02:56:12.185Z,0
2016-10-16T02:57:12.178Z,0
2016-10-16T02:58:12.165Z,0
2016-10-16T02:59:12.165Z,0
2016-10-16T03:00:12.590Z,0
2016-10-16T03:01:12.144Z,0
2016-10-16T03:02:12.145Z,0
2016-10-16T03:03:12.135Z,0
2016-10-16T03:04:12.431Z,0
2016-10-16T03:05:12.114Z,0
2016-10-16T03:06:12.100Z,0
2016-10-16T03:07:12.094Z,0
2016-10-16T03:08:12.083Z,0
2016-10-16T03:09:12.076Z,0
2016-10-16T03:10:12.086Z,0
2016-10-16T03:11:12.051Z,0
2016-10-16T03:12:12.048Z,0
2016-10-16T03:13:12.038Z,0
2016-10-16T03:14:12.346Z,0
2016-10-16T03:15:12.016Z,0
2016-10-16T03:16:12.016Z,0
2016-10-16T03:17:12.011Z,0
2016-10-16T03:18:12.011Z,0
2016-10-16T03:19:11.986Z,0
2016-10-16T03:20:12.307Z,0
2016-10-16T03:21:11.975Z,0
2016-10-16T03:22:11.956Z,0
2016-10-16T03:23:11.958Z,0
2016-10-16T03:24:11.944Z,0
2016-10-16T03:25:11.940Z,0
2016-10-16T03:26:11.936Z,0
2016-10-16T03:27:11.916Z,0
2016-10-16T03:28:11.906Z,0
2016-10-16T03:29:12.225Z,0
2016-10-16T03:30:11.895Z,0
2016-10-16T03:31:11.872Z,0
2016-10-16T03:32:11.910Z,0
2016-10-16T03:33:11.864Z,0
2016-10-16T03:34:12.055Z,0
2016-10-16T03:35:11.851Z,0
2016-10-16T03:36:11.838Z,0
2016-10-16T03:37:11.832Z,0
2016-10-16T03:38:11.818Z,0
2016-10-16T03:39:11.809Z,0
2016-10-16T03:40:11.812Z,0
2016-10-16T03:41:11.801Z,0
2016-10-16T03:42:11.787Z,0
2016-10-16T03:43:11.775Z,0
2016-10-16T03:44:11.767Z,0
2016-10-16T03:45:11.758Z,0
2016-10-16T03:46:11.748Z,0
2016-10-16T03:47:11.744Z,0
2016-10-16T03:48:12.054Z,0
2016-10-16T03:49:11.726Z,0
2016-10-16T03:50:11.719Z,0
2016-10-16T03:51:11.694Z,0
2016-10-16T03:52:11.699Z,0
2016-10-16T03:53:11.694Z,0
2016-10-16T03:54:11.688Z,0
2016-10-16T03:55:11.670Z,0
2016-10-16T03:56:11.655Z,0
2016-10-16T03:57:11.665Z,0
2016-10-16T03:58:11.639Z,0
2016-10-16T03:59:11.637Z,0
2016-10-16T04:00:11.636Z,0
2016-10-16T04:01:11.610Z,0
2016-10-16T04:02:11.924Z,0
2016-10-16T04:03:11.594Z,0
2016-10-16T04:04:11.598Z,0
2016-10-16T04:05:11.566Z,0
2016-10-16T04:06:11.589Z,0
2016-10-16T04:07:11.559Z,0
2016-10-16T04:08:11.568Z,0
2016-10-16T04:09:11.580Z,0
2016-10-16T04:10:11.576Z,0
2016-10-16T04:11:11.594Z,0
2016-10-16T04:12:11.590Z,0
2016-10-16T04:13:11.606Z,0
2016-10-16T04:14:11.548Z,0
2016-10-16T04:15:11.511Z,0
2016-10-16T04:16:11.519Z,0
2016-10-16T04:17:11.538Z,0
2016-10-16T04:18:11.553Z,0
2016-10-16T04:19:11.537Z,0
2016-10-16T04:20:11.545Z,0
2016-10-16T04:21:11.486Z,0
2016-10-16T04:22:11.828Z,0
2016-10-16T04:23:11.509Z,0
2016-10-16T04:24:11.512Z,0
2016-10-16T04:25:11.517Z,0
2016-10-16T04:26:11.528Z,0
2016-10-16T04:27:11.443Z,0
2016-10-16T04:28:11.438Z,0
2016-10-16T04:29:11.443Z,0
2016-10-16T04:30:11.444Z,0
2016-10-16T04:31:11.459Z,0
2016-10-16T04:32:11.464Z,0
2016-10-16T04:33:11.471Z,0
2016-10-16T04:34:11.476Z,0
2016-10-16T04:35:11.489Z,0
2016-10-16T04:36:11.493Z,0
2016-10-16T04:37:11.438Z,0
2016-10-16T04:38:11.441Z,0
2016-10-16T04:39:11.442Z,0
2016-10-16T04:40:11.427Z,0
2016-10-16T04:41:11.432Z,0
2016-10-16T04:42:11.452Z,0
2016-10-16T04:43:11.681Z,0
2016-10-16T04:44:11.375Z,0
2016-10-16T04:45:11.386Z,0
2016-10-16T04:46:11.389Z,0
2016-10-16T04:47:11.400Z,0
2016-10-16T04:48:11.403Z,0
2016-10-16T04:49:11.419Z,0
2016-10-16T04:50:11.424Z,0
2016-10-16T04:51:11.430Z,0
2016-10-16T04:52:11.435Z,0
2016-10-16T04:53:11.335Z,0
2016-10-16T04:54:11.343Z,0
2016-10-16T04:55:11.355Z,0
2016-10-16T04:56:11.364Z,0
2016-10-16T04:57:11.672Z,0
2016-10-16T04:58:11.574Z,0
2016-10-16T04:59:11.379Z,0
2016-10-16T05:00:11.232Z,0
2016-10-16T05:01:11.228Z,0
2016-10-16T05:02:11.208Z,0
2016-10-16T05:03:11.355Z,0
2016-10-16T05:04:11.205Z,0
2016-10-16T05:05:11.319Z,0
2016-10-16T05:06:11.176Z,0
2016-10-16T05:07:11.193Z,0
2016-10-16T05:08:11.194Z,0
2016-10-16T05:09:11.204Z,0
2016-10-16T05:10:11.198Z,0
2016-10-16T05:11:11.197Z,0
2016-10-16T05:12:11.192Z,0
2016-10-16T05:13:11.176Z,0
2016-10-16T05:14:11.168Z,0
2016-10-16T05:15:11.029Z,0
2016-10-16T05:16:11.055Z,0
2016-10-16T05:17:11.011Z,0
2016-10-16T05:18:11.021Z,0
2016-10-16T05:19:11.033Z,0
2016-10-16T05:20:11.025Z,0
2016-10-16T05:21:11.000Z,0
2016-10-16T05:22:11.003Z,0
2016-10-16T05:23:11.002Z,0
2016-10-16T05:24:11.000Z,0
2016-10-16T05:25:11.001Z,0
2016-10-16T05:26:25.715Z,0
2016-10-16T05:27:10.861Z,0
2016-10-16T05:28:10.836Z,0
2016-10-16T05:29:11.231Z,0
2016-10-16T05:30:10.830Z,0
2016-10-16T05:31:10.805Z,0
2016-10-16T05:32:10.808Z,0
2016-10-16T05:33:10.804Z,0
2016-10-16T05:34:10.814Z,0
2016-10-16T05:35:10.811Z,0
2016-10-16T05:36:10.781Z,0
2016-10-16T05:37:11.130Z,0
2016-10-16T05:38:10.751Z,0
2016-10-16T05:39:10.758Z,5
2016-10-16T05:40:10.745Z,5
2016-10-16T05:41:10.720Z,5
2016-10-16T05:42:10.709Z,5
2016-10-16T05:43:10.700Z,5
2016-10-16T05:44:10.704Z,5
2016-10-16T05:45:10.684Z,5
2016-10-16T05:46:10.680Z,5
2016-10-16T05:47:10.665Z,5
2016-10-16T05:48:10.680Z,5
2016-10-16T05:49:10.655Z,5
2016-10-16T05:50:10.649Z,10
2016-10-16T05:51:10.967Z,10
2016-10-16T05:52:10.643Z,10
2016-10-16T05:53:10.620Z,10
2016-10-16T05:54:10.599Z,10
2016-10-16T05:55:10.608Z,15
2016-10-16T05:56:10.595Z,15
2016-10-16T05:57:10.588Z,15
2016-10-16T05:58:10.574Z,15
2016-10-16T05:59:10.568Z,15
2016-10-16T06:00:10.619Z,15
2016-10-16T06:01:10.545Z,20
2016-10-16T06:02:10.532Z,20
2016-10-16T06:03:10.521Z,25
2016-10-16T06:04:10.523Z,25
2016-10-16T06:05:10.510Z,30
2016-10-16T06:06:10.527Z,30
2016-10-16T06:07:10.489Z,30
2016-10-16T06:08:10.484Z,30
2016-10-16T06:09:10.475Z,30
2016-10-16T06:10:10.467Z,30
2016-10-16T06:11:10.468Z,35
2016-10-16T06:12:10.452Z,35
2016-10-16T06:13:10.451Z,40
2016-10-16T06:14:10.800Z,40
2016-10-16T06:15:10.417Z,40
2016-10-16T06:16:10.441Z,40
2016-10-16T06:17:10.399Z,40
2016-10-16T06:18:10.400Z,40
2016-10-16T06:19:10.387Z,40
2016-10-16T06:20:10.384Z,40
2016-10-16T06:21:10.369Z,40
2016-10-16T06:22:10.393Z,45
2016-10-16T06:23:10.354Z,45
2016-10-16T06:24:10.351Z,45
2016-10-16T06:25:10.340Z,50
2016-10-16T06:26:10.335Z,50
2016-10-16T06:27:10.310Z,50
2016-10-16T06:28:10.312Z,55
2016-10-16T06:29:10.305Z,55
2016-10-16T06:30:10.293Z,60
2016-10-16T06:31:10.291Z,60
2016-10-16T06:32:10.291Z,60
2016-10-16T06:33:10.265Z,60
2016-10-16T06:34:10.262Z,60
2016-10-16T06:35:10.253Z,60
2016-10-16T06:36:10.567Z,65
2016-10-16T06:37:10.243Z,65
2016-10-16T06:38:10.230Z,65
2016-10-16T06:39:10.225Z,65
2016-10-16T06:40:10.212Z,65
2016-10-16T06:41:10.201Z,65
2016-10-16T06:42:10.198Z,65
2016-10-16T06:43:10.185Z,70
2016-10-16T06:44:10.181Z,70
2016-10-16T06:45:10.178Z,70
2016-10-16T06:46:10.166Z,65
2016-10-16T06:47:10.154Z,70
2016-10-16T06:48:10.146Z,70
2016-10-16T06:49:10.133Z,70
2016-10-16T06:50:10.127Z,75
2016-10-16T06:51:10.124Z,75
2016-10-16T06:52:10.111Z,75
2016-10-16T06:53:10.110Z,80
2016-10-16T06:54:10.100Z,80
2016-10-16T06:55:10.083Z,85
2016-10-16T06:56:10.090Z,85
2016-10-16T06:57:10.075Z,90
2016-10-16T06:58:10.067Z,95
2016-10-16T06:59:10.065Z,100
2016-10-16T07:00:10.057Z,100
2016-10-16T07:01:10.044Z,105
2016-10-16T07:02:10.040Z,115
2016-10-16T07:03:10.034Z,115
2016-10-16T07:04:10.026Z,115
2016-10-16T07:05:10.001Z,120
2016-10-16T07:06:10.003Z,120
2016-10-16T07:07:10.006Z,120
2016-10-16T07:08:09.989Z,120
2016-10-16T07:09:09.976Z,120
2016-10-16T07:10:09.975Z,125
2016-10-16T07:11:09.972Z,125
2016-10-16T07:12:09.955Z,125
2016-10-16T07:13:09.945Z,130
2016-10-16T07:14:09.957Z,130
2016-10-16T07:15:09.937Z,135
2016-10-16T07:16:09.919Z,135
2016-10-16T07:17:09.920Z,135
2016-10-16T07:18:09.908Z,140
2016-10-16T07:19:09.916Z,145
2016-10-16T07:20:09.894Z,145
2016-10-16T07:21:09.895Z,145
2016-10-16T07:22:09.882Z,140
2016-10-16T07:23:09.872Z,135
2016-10-16T07:24:09.875Z,135
2016-10-16T07:25:09.860Z,140
2016-10-16T07:26:09.855Z,140
2016-10-16T07:27:09.846Z,135
2016-10-16T07:28:09.843Z,135
2016-10-16T07:29:09.833Z,135
2016-10-16T07:30:09.816Z,135
2016-10-16T07:31:09.817Z,135
2016-10-16T07:32:09.814Z,130
2016-10-16T07:33:09.812Z,135
2016-10-16T07:34:09.791Z,135
2016-10-16T07:35:09.786Z,140
2016-10-16T07:36:09.785Z,140
2016-10-16T07:37:09.766Z,145
2016-10-16T07:38:09.779Z,145
2016-10-16T07:39:09.769Z,145
2016-10-16T07:40:09.754Z,155
2016-10-16T07:41:09.755Z,160
2016-10-16T07:42:09.768Z,165
2016-10-16T07:43:09.740Z,170
2016-10-16T07:44:09.749Z,170
2016-10-16T07:45:09.727Z,170
2016-10-16T07:46:09.710Z,170
2016-10-16T07:47:09.731Z,175
2016-10-16T07:48:09.709Z,175
2016-10-16T07:49:09.699Z,175
2016-10-16T07:50:09.689Z,175
2016-10-16T07:51:09.685Z,175
2016-10-16T07:52:09.669Z,170
2016-10-16T07:53:09.662Z,165
2016-10-16T07:54:09.661Z,165
2016-10-16T07:55:09.653Z,165
2016-10-16T07:56:09.658Z,170
2016-10-16T07:57:09.957Z,175
2016-10-16T07:58:09.640Z,180
2016-10-16T07:59:09.631Z,185
2016-10-16T08:00:09.624Z,195
2016-10-16T08:01:09.617Z,205
2016-10-16T08:02:09.618Z,205
2016-10-16T08:03:09.621Z,205
2016-10-16T08:04:09.599Z,200
2016-10-16T08:05:09.706Z,190
2016-10-16T08:06:09.588Z,190
2016-10-16T08:07:09.596Z,195
2016-10-16T08:08:09.578Z,195
2016-10-16T08:09:09.581Z,200
2016-10-16T08:10:09.579Z,215
2016-10-16T08:11:09.577Z,220
2016-10-16T08:12:09.562Z,220
2016-10-16T08:13:09.568Z,215
2016-10-16T08:14:09.543Z,210
2016-10-16T08:15:09.554Z,210
2016-10-16T08:16:09.537Z,210
2016-10-16T08:17:09.527Z,205
2016-10-16T08:18:09.526Z,200
2016-10-16T08:19:09.519Z,200
2016-10-16T08:20:09.506Z,195
2016-10-16T08:21:09.513Z,185
2016-10-16T08:22:09.515Z,175
2016-10-16T08:23:09.501Z,175
2016-10-16T08:24:09.493Z,170
2016-10-16T08:25:09.487Z,165
2016-10-16T08:26:09.476Z,155
2016-10-16T08:27:09.473Z,155
2016-10-16T08:28:09.473Z,155
2016-10-16T08:29:10.115Z,160
2016-10-16T08:30:09.460Z,165
2016-10-16T08:31:09.462Z,160
2016-10-16T08:32:09.455Z,155
2016-10-16T08:33:09.448Z,150
2016-10-16T08:34:09.436Z,150
2016-10-16T08:35:09.435Z,150
2016-10-16T08:36:09.426Z,150
2016-10-16T08:37:09.414Z,150
2016-10-16T08:38:09.421Z,150
2016-10-16T08:39:09.411Z,150
2016-10-16T08:40:09.412Z,145
2016-10-16T08:41:09.405Z,145
2016-10-16T08:42:09.393Z,145
2016-10-16T08:43:09.387Z,150
2016-10-16T08:44:09.704Z,155
2016-10-16T08:45:09.381Z,150
2016-10-16T08:46:09.383Z,140
2016-10-16T08:47:09.373Z,135
2016-10-16T08:48:09.415Z,130
2016-10-16T08:49:09.358Z,145
2016-10-16T08:50:09.353Z,150
2016-10-16T08:51:09.354Z,160
2016-10-16T08:52:09.347Z,160
2016-10-16T08:53:09.339Z,165
2016-10-16T08:54:09.342Z,155
2016-10-16T08:55:09.326Z,145
2016-10-16T08:56:09.327Z,135
2016-10-16T08:57:09.319Z,130
2016-10-16T08:58:09.309Z,120
2016-10-16T08:59:09.307Z,120
2016-10-16T09:00:09.301Z,115
2016-10-16T09:01:09.290Z,110
2016-10-16T09:02:09.283Z,115
2016-10-16T09:03:09.304Z,110
2016-10-16T09:04:09.595Z,110
2016-10-16T09:05:09.281Z,110
2016-10-16T09:06:09.271Z,110
2016-10-16T09:07:09.256Z,110
2016-10-16T09:08:09.262Z,110
2016-10-16T09:09:09.271Z,110
2016-10-16T09:10:09.257Z,115
2016-10-16T09:11:09.238Z,115
2016-10-16T09:12:09.234Z,115
2016-10-16T09:13:09.231Z,115
2016-10-16T09:14:09.225Z,115
2016-10-16T09:15:09.549Z,115
2016-10-16T09:16:09.216Z,115
2016-10-16T09:17:09.238Z,115
2016-10-16T09:18:09.200Z,115
2016-10-16T09:19:09.198Z,115
2016-10-16T09:20:09.190Z,115
2016-10-16T09:21:09.202Z,120
2016-10-16T09:22:09.190Z,120
2016-10-16T09:23:09.249Z,125
2016-10-16T09:24:09.175Z,125
2016-10-16T09:25:09.173Z,130
2016-10-16T09:26:09.165Z,130
2016-10-16T09:27:09.155Z,140
2016-10-16T09:28:09.148Z,145
2016-10-16T09:29:09.149Z,160
2016-10-16T09:30:09.143Z,170
2016-10-16T09:31:09.231Z,180
2016-10-16T09:32:09.448Z,190
2016-10-16T09:33:09.127Z,205
2016-10-16T09:34:09.114Z,220
2016-10-16T09:35:09.125Z,225
2016-10-16T09:36:09.119Z,215
2016-10-16T09:37:09.446Z,215
2016-10-16T09:38:09.113Z,215
2016-10-16T09:39:09.101Z,220
2016-10-16T09:40:09.100Z,215
2016-10-16T09:41:09.114Z,230
2016-10-16T09:42:09.132Z,245
2016-10-16T09:43:09.133Z,255
2016-10-16T09:44:09.137Z,245
2016-10-16T09:45:09.074Z,235
2016-10-16T09:46:09.054Z,235
2016-10-16T09:47:09.062Z,245
2016-10-16T09:48:09.061Z,260
2016-10-16T09:49:09.061Z,260
2016-10-16T09:50:09.075Z,250
2016-10-16T09:51:09.083Z,250
2016-10-16T09:52:09.212Z,230
2016-10-16T09:53:09.095Z,200
2016-10-16T09:54:09.104Z,170
2016-10-16T09:55:09.105Z,165
2016-10-16T09:56:09.112Z,170
2016-10-16T09:57:09.030Z,180
2016-10-16T09:58:09.026Z,185
2016-10-16T09:59:09.035Z,190
2016-10-16T10:00:09.042Z,190
2016-10-16T10:01:09.051Z,185
2016-10-16T10:02:09.063Z,175
2016-10-16T10:03:09.303Z,175
2016-10-16T10:04:09.066Z,170
2016-10-16T10:05:09.071Z,165
2016-10-16T10:06:09.029Z,170
2016-10-16T10:07:09.038Z,170
2016-10-16T10:08:09.036Z,165
2016-10-16T10:09:09.363Z,165
2016-10-16T10:10:09.016Z,150
2016-10-16T10:11:09.024Z,145
2016-10-16T10:12:09.026Z,145
2016-10-16T10:13:09.031Z,145
2016-10-16T10:14:09.038Z,140
2016-10-16T10:15:09.043Z,130
2016-10-16T10:16:08.988Z,130
2016-10-16T10:17:09.015Z,130
2016-10-16T10:18:09.016Z,130
2016-10-16T10:19:09.008Z,135
2016-10-16T10:20:09.017Z,145
2016-10-16T10:21:09.350Z,150
2016-10-16T10:22:09.035Z,155
2016-10-16T10:23:09.001Z,155
2016-10-16T10:24:09.022Z,155
2016-10-16T10:25:09.008Z,160
2016-10-16T10:26:08.950Z,160
2016-10-16T10:27:08.969Z,175
2016-10-16T10:28:08.968Z,190
2016-10-16T10:29:09.040Z,205
2016-10-16T10:30:08.996Z,210
2016-10-16T10:31:09.011Z,220
2016-10-16T10:32:09.007Z,230
2016-10-16T10:33:09.009Z,225
2016-10-16T10:34:09.024Z,220
2016-10-16T10:35:09.021Z,205
2016-10-16T10:36:09.182Z,180
2016-10-16T10:37:08.932Z,175
2016-10-16T10:38:08.938Z,170
2016-10-16T10:39:08.951Z,175
2016-10-16T10:40:08.968Z,180
2016-10-16T10:41:08.962Z,180
2016-10-16T10:42:08.982Z,175
2016-10-16T10:43:09.168Z,170
2016-10-16T10:44:08.979Z,170
2016-10-16T10:45:09.002Z,170
2016-10-16T10:46:08.993Z,175
2016-10-16T10:47:09.003Z,175
2016-10-16T10:48:08.918Z,180
2016-10-16T10:49:08.929Z,185
2016-10-16T10:50:08.919Z,180
2016-10-16T10:51:08.943Z,170
2016-10-16T10:52:09.011Z,145
2016-10-16T10:53:08.941Z,125
2016-10-16T10:54:08.962Z,125
2016-10-16T10:55:08.960Z,125
2016-10-16T10:56:08.981Z,125
2016-10-16T10:57:08.973Z,130
2016-10-16T10:58:08.986Z,135
2016-10-16T10:59:08.910Z,130
2016-10-16T11:00:09.238Z,130
2016-10-16T11:01:08.899Z,130
2016-10-16T11:02:08.906Z,130
2016-10-16T11:03:08.916Z,130
2016-10-16T11:04:08.910Z,130
2016-10-16T11:05:08.934Z,135
2016-10-16T11:06:08.933Z,135
2016-10-16T11:07:08.945Z,135
2016-10-16T11:08:08.921Z,135
2016-10-16T11:09:08.879Z,125
2016-10-16T11:10:08.884Z,125
2016-10-16T11:11:08.890Z,125
2016-10-16T11:12:08.910Z,120
2016-10-16T11:13:08.987Z,125
2016-10-16T11:14:08.908Z,125
2016-10-16T11:15:08.895Z,125
2016-10-16T11:16:08.916Z,125
2016-10-16T11:17:08.910Z,125
2016-10-16T11:18:08.916Z,125
2016-10-16T11:19:08.907Z,125
2016-10-16T11:20:08.863Z,120
2016-10-16T11:21:08.911Z,120
2016-10-16T11:22:09.200Z,120
2016-10-16T11:23:08.890Z,120
2016-10-16T11:24:08.955Z,120
2016-10-16T11:25:08.895Z,120
2016-10-16T11:26:09.567Z,120
2016-10-16T11:27:08.881Z,120
2016-10-16T11:28:08.892Z,115
2016-10-16T11:29:08.858Z,125
2016-10-16T11:30:08.833Z,135
2016-10-16T11:31:08.842Z,135
2016-10-16T11:32:08.844Z,135
2016-10-16T11:33:08.849Z,135
2016-10-16T11:34:08.900Z,130
2016-10-16T11:35:08.875Z,130
2016-10-16T11:36:08.873Z,125
2016-10-16T11:37:08.863Z,120
2016-10-16T11:38:08.881Z,120
2016-10-16T11:39:08.838Z,125
2016-10-16T11:40:08.796Z,125
2016-10-16T11:41:08.787Z,125
2016-10-16T11:42:08.812Z,125
2016-10-16T11:43:08.820Z,125
2016-10-16T11:44:08.826Z,125
2016-10-16T11:45:08.833Z,125
2016-10-16T11:46:08.832Z,130
2016-10-16T11:47:08.841Z,130
2016-10-16T11:48:08.848Z,130
2016-10-16T11:49:09.272Z,135
2016-10-16T11:50:08.866Z,140
2016-10-16T11:51:08.873Z,135
2016-10-16T11:52:08.778Z,140
2016-10-16T11:53:08.794Z,140
2016-10-16T11:54:08.791Z,145
2016-10-16T11:55:08.802Z,135
2016-10-16T11:56:08.802Z,135
2016-10-16T11:57:08.810Z,140
2016-10-16T11:58:08.822Z,145
2016-10-16T11:59:08.898Z,150
2016-10-16T12:00:08.832Z,155
2016-10-16T12:01:08.841Z,165
2016-10-16T12:02:08.847Z,165
2016-10-16T12:03:08.750Z,165
2016-10-16T12:04:08.835Z,155
2016-10-16T12:05:08.768Z,145
2016-10-16T12:06:08.776Z,140
2016-10-16T12:07:08.777Z,135
2016-10-16T12:08:08.788Z,130
2016-10-16T12:09:08.794Z,125
2016-10-16T12:10:08.802Z,125
2016-10-16T12:11:08.813Z,120
2016-10-16T12:12:08.657Z,120
2016-10-16T12:13:08.671Z,115
2016-10-16T12:14:08.658Z,115
2016-10-16T12:15:08.788Z,120
2016-10-16T12:16:08.788Z,120
2016-10-16T12:17:08.758Z,120
2016-10-16T12:18:08.751Z,125
2016-10-16T12:19:08.768Z,130
2016-10-16T12:20:08.775Z,135
2016-10-16T12:21:08.632Z,130
2016-10-16T12:22:08.632Z,125
2016-10-16T12:23:08.621Z,125
2016-10-16T12:24:08.619Z,125
2016-10-16T12:25:08.626Z,125
2016-10-16T12:26:08.758Z,125
2016-10-16T12:27:08.621Z,125
2016-10-16T12:28:08.616Z,120
2016-10-16T12:29:08.613Z,120
2016-10-16T12:30:08.748Z,120
2016-10-16T12:31:08.601Z,120
2016-10-16T12:32:08.609Z,125
2016-10-16T12:33:08.744Z,125
2016-10-16T12:34:08.591Z,120
2016-10-16T12:35:08.638Z,120
2016-10-16T12:36:08.591Z,120
2016-10-16T12:37:08.644Z,115
2016-10-16T12:38:08.656Z,110
2016-10-16T12:39:08.629Z,115
2016-10-16T12:40:08.622Z,105
2016-10-16T12:41:08.629Z,105
2016-10-16T12:42:08.615Z,110
2016-10-16T12:43:08.578Z,105
2016-10-16T12:44:08.912Z,105
2016-10-16T12:45:08.599Z,105
2016-10-16T12:46:08.650Z,105
2016-10-16T12:47:08.597Z,100
2016-10-16T12:48:08.919Z,100
2016-10-16T12:49:08.579Z,100
2016-10-16T12:50:08.597Z,100
2016-10-16T12:51:08.598Z,100
2016-10-16T12:52:08.579Z,100
2016-10-16T12:53:08.582Z,100
2016-10-16T12:54:08.579Z,100
2016-10-16T12:55:08.563Z,100
2016-10-16T12:56:08.566Z,100
2016-10-16T12:57:08.573Z,100
2016-10-16T12:58:08.432Z,100
2016-10-16T12:59:08.443Z,100
2016-10-16T13:00:08.451Z,100
2016-10-16T13:01:08.422Z,100
2016-10-16T13:02:08.428Z,100
2016-10-16T13:03:08.409Z,100
2016-10-16T13:04:08.551Z,100
2016-10-16T13:05:08.405Z,95
2016-10-16T13:06:08.410Z,100
2016-10-16T13:07:08.394Z,100
2016-10-16T13:08:08.402Z,100
2016-10-16T13:09:08.405Z,100
2016-10-16T13:10:08.784Z,100
2016-10-16T13:11:08.408Z,105
2016-10-16T13:12:08.394Z,115
2016-10-16T13:13:08.400Z,125
2016-10-16T13:14:08.404Z,130
2016-10-16T13:15:08.384Z,125
2016-10-16T13:16:08.402Z,120
2016-10-16T13:17:08.379Z,115
2016-10-16T13:18:08.384Z,115
2016-10-16T13:19:08.380Z,115
2016-10-16T13:20:08.381Z,115
2016-10-16T13:21:08.405Z,110
2016-10-16T13:22:08.257Z,105
2016-10-16T13:23:08.443Z,105
2016-10-16T13:24:08.262Z,110
2016-10-16T13:25:08.240Z,110
2016-10-16T13:26:08.237Z,105
2016-10-16T13:27:08.239Z,110
2016-10-16T13:28:08.223Z,110
2016-10-16T13:29:08.239Z,110
2016-10-16T13:30:08.222Z,115
2016-10-16T13:31:08.219Z,120
2016-10-16T13:32:08.226Z,120
2016-10-16T13:33:08.200Z,130
2016-10-16T13:34:08.202Z,130
2016-10-16T13:35:08.196Z,125
2016-10-16T13:36:08.199Z,125
2016-10-16T13:37:08.187Z,125
2016-10-16T13:38:08.182Z,125
2016-10-16T13:39:08.181Z,120
2016-10-16T13:40:08.174Z,115
2016-10-16T13:41:08.173Z,120
2016-10-16T13:42:08.546Z,120
2016-10-16T13:43:08.583Z,125
2016-10-16T13:44:08.166Z,130
2016-10-16T13:45:08.181Z,135
2016-10-16T13:46:08.156Z,145
2016-10-16T13:47:08.144Z,150
2016-10-16T13:48:08.145Z,165
2016-10-16T13:49:08.137Z,175
2016-10-16T13:50:08.691Z,170
2016-10-16T13:51:08.122Z,160
2016-10-16T13:52:08.125Z,160
2016-10-16T13:53:08.123Z,165
2016-10-16T13:54:08.121Z,170
2016-10-16T13:55:08.120Z,180
2016-10-16T13:56:08.124Z,180
2016-10-16T13:57:08.109Z,180
2016-10-16T13:58:08.107Z,180
2016-10-16T13:59:08.103Z,170
2016-10-16T14:00:08.111Z,165
2016-10-16T14:01:08.108Z,170
2016-10-16T14:02:08.085Z,175
2016-10-16T14:03:08.089Z,180
2016-10-16T14:04:08.081Z,175
2016-10-16T14:05:08.083Z,160
2016-10-16T14:06:08.076Z,145
2016-10-16T14:07:08.069Z,140
2016-10-16T14:08:08.075Z,135
2016-10-16T14:09:08.076Z,140
2016-10-16T14:10:08.066Z,140
2016-10-16T14:11:08.060Z,135
2016-10-16T14:12:08.503Z,135